Forside
METAR-TAF:

METAR-TAF

Lufthavne :

New River Valley Airport

Dublin, Virginia, USA

Breddekreds: 37-08N, længdekreds: 080-41W, højde: 642 m

Aktuelle vejr

Denne rapport blev lavet for 7 minutter siden, kl. 21:15 UTC
Vind 7 kt fra vest
Temperatur 5°C
Fugtighed 65%
Tryk 1013 hPa
Sigt: 16.1 km
skyfri

METAR: KPSK 262115Z AUTO 26007KT 10SM CLR 05/M01 A2992 RMK AO2 T00501015

Tid: 16:22 (21:22 UTC)


TAF: fraværende

Vejrobservationer og prognoser fra mere end 4000 lufthavne (METAR og TAF).

De gule og røde prikker repræsenterer de meteorologiske stationer.

Flyt musen over at se navnet på stationen.

Så klik over at se vejr observationer og prognoser.

At skifte det kort: Klik på de grønne knapper med et sort kors for at zoome ind; på den grønne knap med en bindestreg for at zoome ud; eller på de grønne pile for tilstødende kort.


METAR-TAF: